createdAt,value
2022-08-19T00:01:52.950Z,100.00
2022-08-19T00:04:41.901Z,100.00
2022-08-19T00:07:30.526Z,100.00
2022-08-19T00:10:20.497Z,100.00
2022-08-19T00:13:08.788Z,100.00
2022-08-19T00:15:59.056Z,100.00
2022-08-19T00:18:47.669Z,100.00
2022-08-19T00:21:38.764Z,100.00
2022-08-19T00:24:28.585Z,100.00
2022-08-19T00:27:26.239Z,100.00
2022-08-19T00:30:15.917Z,100.00
2022-08-19T00:33:04.445Z,100.00
2022-08-19T00:35:56.124Z,100.00
2022-08-19T00:38:45.402Z,100.00
2022-08-19T00:41:33.298Z,100.00
2022-08-19T00:44:27.115Z,100.00
2022-08-19T00:47:16.082Z,100.00
2022-08-19T00:50:05.899Z,100.00
2022-08-19T00:52:55.233Z,100.00
2022-08-19T00:55:45.831Z,100.00
2022-08-19T00:58:36.509Z,100.00
2022-08-19T01:01:24.969Z,100.00
2022-08-19T01:04:14.011Z,100.00
2022-08-19T01:07:03.488Z,100.00
2022-08-19T01:09:52.435Z,100.00
2022-08-19T01:12:41.473Z,100.00
2022-08-19T01:15:33.729Z,100.00
2022-08-19T01:18:23.101Z,100.00
2022-08-19T01:21:17.069Z,100.00
2022-08-19T01:24:05.611Z,100.00
2022-08-19T01:26:53.960Z,100.00
2022-08-19T01:29:43.434Z,100.00
2022-08-19T01:32:33.897Z,100.00
2022-08-19T01:35:24.123Z,100.00
2022-08-19T01:38:22.836Z,100.00
2022-08-19T01:41:12.860Z,100.00
2022-08-19T01:44:17.609Z,100.00
2022-08-19T01:47:07.261Z,100.00
2022-08-19T01:49:56.048Z,100.00
2022-08-19T01:52:46.471Z,100.00
2022-08-19T01:55:40.655Z,100.00
2022-08-19T01:58:37.194Z,100.00
2022-08-19T02:01:25.565Z,100.00
2022-08-19T02:04:19.736Z,100.00
2022-08-19T02:07:09.253Z,100.00
2022-08-19T02:09:58.274Z,100.00
2022-08-19T02:12:47.644Z,100.00
2022-08-19T02:15:35.878Z,100.00
2022-08-19T02:18:27.917Z,100.00
2022-08-19T02:21:17.483Z,100.00
2022-08-19T02:24:06.554Z,100.00
2022-08-19T02:26:55.951Z,100.00
2022-08-19T02:29:46.796Z,100.00
2022-08-19T02:32:34.929Z,100.00
2022-08-19T02:35:33.203Z,100.00
2022-08-19T02:38:27.837Z,100.00
2022-08-19T02:41:18.762Z,100.00
2022-08-19T02:44:30.019Z,100.00
2022-08-19T02:47:15.496Z,100.00
2022-08-19T02:50:04.628Z,100.00
2022-08-19T02:52:53.165Z,100.00
2022-08-19T02:55:46.507Z,100.00
2022-08-19T02:58:34.680Z,100.00
2022-08-19T03:01:25.979Z,100.00
2022-08-19T03:04:16.686Z,100.00
2022-08-19T03:07:10.833Z,100.00
2022-08-19T03:09:59.755Z,100.00
2022-08-19T03:12:47.744Z,100.00
2022-08-19T03:15:35.949Z,100.00
2022-08-19T03:18:24.155Z,100.00
2022-08-19T03:21:17.301Z,100.00
2022-08-19T03:24:08.614Z,100.00
2022-08-19T03:26:58.934Z,100.00
2022-08-19T03:29:46.831Z,100.00
2022-08-19T03:32:35.278Z,100.00
2022-08-19T03:35:29.757Z,100.00
2022-08-19T03:38:17.867Z,100.00
2022-08-19T03:41:08.838Z,100.00
2022-08-19T03:43:57.763Z,100.00
2022-08-19T03:46:46.224Z,100.00
2022-08-19T03:49:35.590Z,100.00
2022-08-19T03:52:24.151Z,100.00
2022-08-19T03:55:12.274Z,100.00
2022-08-19T03:58:00.618Z,100.00
2022-08-19T04:00:48.691Z,100.00
2022-08-19T04:03:36.917Z,100.00
2022-08-19T04:06:27.360Z,100.00
2022-08-19T04:09:16.652Z,100.00
2022-08-19T04:12:06.344Z,100.00
2022-08-19T04:14:54.901Z,100.00
2022-08-19T04:17:43.319Z,100.00
2022-08-19T04:20:31.337Z,100.00
2022-08-19T04:23:19.559Z,100.00
2022-08-19T04:26:09.302Z,100.00
2022-08-19T04:29:02.125Z,100.00
2022-08-19T04:31:50.745Z,100.00
2022-08-19T04:35:01.243Z,100.00
2022-08-19T04:37:47.559Z,100.00
2022-08-19T04:40:58.858Z,100.00
2022-08-19T04:43:49.237Z,100.00
2022-08-19T04:46:40.539Z,100.00
2022-08-19T04:49:40.425Z,100.00
2022-08-19T04:52:31.764Z,100.00
2022-08-19T04:55:21.081Z,100.00
2022-08-19T04:58:09.987Z,100.00
2022-08-19T05:01:00.394Z,100.00
2022-08-19T05:03:49.700Z,100.00
2022-08-19T05:06:38.356Z,100.00
2022-08-19T05:09:27.116Z,100.00
2022-08-19T05:12:16.700Z,100.00
2022-08-19T05:15:08.871Z,100.00
2022-08-19T05:18:15.558Z,100.00
2022-08-19T05:21:27.537Z,100.00
2022-08-19T05:24:15.060Z,100.00
2022-08-19T05:27:06.169Z,100.00
2022-08-19T05:29:54.518Z,100.00
2022-08-19T05:32:43.513Z,100.00
2022-08-19T05:35:34.578Z,100.00
2022-08-19T05:38:23.476Z,100.00
2022-08-19T05:41:15.323Z,100.00
2022-08-19T05:44:09.528Z,100.00
2022-08-19T05:46:58.692Z,100.00
2022-08-19T05:49:47.375Z,100.00
2022-08-19T05:52:38.409Z,100.00
2022-08-19T05:55:32.229Z,100.00
2022-08-19T05:58:23.115Z,100.00
2022-08-19T06:01:16.700Z,100.00
2022-08-19T06:04:06.038Z,100.00
2022-08-19T06:06:55.444Z,100.00
2022-08-19T06:09:59.015Z,100.00
2022-08-19T06:12:48.718Z,100.00
2022-08-19T06:15:37.610Z,100.00
2022-08-19T06:18:26.383Z,100.00
2022-08-19T06:21:15.003Z,100.00
2022-08-19T06:24:04.318Z,100.00
2022-08-19T06:26:56.710Z,100.00
2022-08-19T06:29:47.955Z,100.00
2022-08-19T06:32:38.826Z,100.00
2022-08-19T06:35:30.485Z,100.00
2022-08-19T06:38:18.567Z,100.00
2022-08-19T06:41:07.500Z,100.00
2022-08-19T06:43:56.560Z,100.00
2022-08-19T06:46:45.689Z,100.00
2022-08-19T06:49:42.499Z,100.00
2022-08-19T06:52:34.005Z,100.00
2022-08-19T06:55:22.626Z,100.00
2022-08-19T06:58:11.029Z,100.00
2022-08-19T07:01:03.436Z,100.00
2022-08-19T07:03:54.753Z,100.00
2022-08-19T07:06:44.268Z,100.00
2022-08-19T07:09:33.043Z,100.00
2022-08-19T07:12:21.093Z,100.00
2022-08-19T07:15:12.768Z,100.00
2022-08-19T07:18:01.341Z,100.00
2022-08-19T07:20:49.780Z,100.00
2022-08-19T07:26:33.589Z,100.00
2022-08-19T07:29:23.738Z,100.00
2022-08-19T07:32:13.977Z,100.00
2022-08-19T07:35:03.788Z,100.00
2022-08-19T07:37:53.341Z,100.00
2022-08-19T07:40:41.951Z,100.00
2022-08-19T07:43:34.708Z,100.00
2022-08-19T07:46:24.017Z,100.00
2022-08-19T07:49:19.716Z,100.00
2022-08-19T07:52:10.204Z,100.00
2022-08-19T07:55:00.466Z,100.00
2022-08-19T07:57:48.701Z,100.00
2022-08-19T08:00:37.120Z,100.00
2022-08-19T08:03:46.367Z,100.00
2022-08-19T08:06:52.485Z,100.00
2022-08-19T08:09:44.665Z,100.00
2022-08-19T08:12:41.664Z,100.00
2022-08-19T08:15:29.927Z,100.00
2022-08-19T08:18:19.206Z,100.00
2022-08-19T08:21:09.342Z,100.00
2022-08-19T08:26:52.229Z,100.00
2022-08-19T08:29:45.604Z,100.00
2022-08-19T08:32:33.903Z,100.00
2022-08-19T08:35:24.159Z,100.00
2022-08-19T08:38:12.760Z,100.00
2022-08-19T08:41:07.152Z,100.00
2022-08-19T08:43:57.443Z,100.00
2022-08-19T08:46:50.392Z,100.00
2022-08-19T08:49:47.205Z,100.00
2022-08-19T08:52:44.035Z,100.00
2022-08-19T08:55:36.831Z,100.00
2022-08-19T08:58:42.636Z,100.00
2022-08-19T09:01:31.325Z,100.00
2022-08-19T09:04:20.161Z,100.00
2022-08-19T09:07:35.490Z,100.00
2022-08-19T09:10:32.919Z,100.00
2022-08-19T09:13:37.328Z,100.00
2022-08-19T09:16:28.318Z,99.38
2022-08-19T09:19:17.937Z,97.58
2022-08-19T09:22:10.668Z,96.25
2022-08-19T09:24:58.815Z,94.63
2022-08-19T09:27:47.701Z,93.37
2022-08-19T09:30:41.527Z,92.41
2022-08-19T09:33:30.127Z,91.72
2022-08-19T09:36:32.924Z,91.79
2022-08-19T09:39:23.280Z,91.14
2022-08-19T09:42:16.342Z,90.72
2022-08-19T09:45:10.430Z,87.24
2022-08-19T09:47:58.083Z,83.36
2022-08-19T09:50:51.771Z,86.35
2022-08-19T09:53:40.707Z,84.02
2022-08-19T09:56:29.471Z,84.28
2022-08-19T09:59:18.472Z,83.98
2022-08-19T10:02:10.886Z,83.78
2022-08-19T10:05:23.042Z,81.97
2022-08-19T10:08:14.970Z,79.16
2022-08-19T10:11:28.480Z,79.04
2022-08-19T10:14:12.401Z,80.90
2022-08-19T10:17:00.796Z,80.84
2022-08-19T10:19:55.704Z,80.18
2022-08-19T10:22:44.654Z,79.65
2022-08-19T10:25:35.504Z,74.04
2022-08-19T10:28:24.489Z,74.28
2022-08-19T10:31:15.491Z,71.52
2022-08-19T10:34:09.987Z,71.93
2022-08-19T10:37:02.105Z,73.28
2022-08-19T10:39:51.250Z,70.70
2022-08-19T10:42:39.939Z,70.87
2022-08-19T10:45:28.702Z,69.77
2022-08-19T10:48:17.703Z,65.39
2022-08-19T10:51:26.883Z,67.70
2022-08-19T10:54:15.961Z,68.65
2022-08-19T10:57:03.885Z,67.96
2022-08-19T10:59:52.582Z,66.35
2022-08-19T11:02:41.943Z,63.91
2022-08-19T11:05:30.830Z,63.31
2022-08-19T11:08:28.251Z,62.66
2022-08-19T11:11:17.021Z,61.49
2022-08-19T11:14:05.494Z,60.17
2022-08-19T11:16:56.277Z,59.70
2022-08-19T11:19:43.210Z,60.04
2022-08-19T11:22:34.430Z,60.78
2022-08-19T11:25:28.946Z,61.10
2022-08-19T11:28:17.017Z,59.17
2022-08-19T11:31:05.496Z,58.38
2022-08-19T11:33:54.362Z,56.54
2022-08-19T11:36:45.703Z,56.32
2022-08-19T11:39:35.887Z,56.33
2022-08-19T11:42:42.408Z,56.92
2022-08-19T11:45:31.122Z,55.66
2022-08-19T11:48:22.557Z,53.62
2022-08-19T11:51:13.110Z,53.17
2022-08-19T11:54:02.404Z,52.30
2022-08-19T11:56:50.617Z,50.09
2022-08-19T11:59:38.775Z,48.29
2022-08-19T12:02:26.969Z,48.13
2022-08-19T12:05:15.614Z,48.96
2022-08-19T12:08:04.064Z,48.20
2022-08-19T12:10:52.598Z,47.37
2022-08-19T12:13:41.570Z,47.36
2022-08-19T12:16:32.199Z,46.59
2022-08-19T12:19:21.764Z,46.08
2022-08-19T12:22:10.910Z,46.39
2022-08-19T12:24:59.170Z,45.84
2022-08-19T12:27:56.743Z,44.95
2022-08-19T12:30:45.838Z,44.17
2022-08-19T12:33:34.380Z,44.39
2022-08-19T12:36:23.488Z,44.49
2022-08-19T12:39:11.980Z,44.08
2022-08-19T12:42:01.954Z,43.81
2022-08-19T12:44:50.259Z,44.08
2022-08-19T12:47:40.850Z,44.81
2022-08-19T12:50:34.113Z,43.79
2022-08-19T12:53:22.878Z,43.32
2022-08-19T12:56:13.204Z,43.74
2022-08-19T12:59:03.263Z,43.30
2022-08-19T13:01:51.994Z,43.81
2022-08-19T13:04:41.599Z,44.12
2022-08-19T13:07:31.096Z,44.61
2022-08-19T13:10:22.374Z,43.54
2022-08-19T13:13:11.887Z,43.51
2022-08-19T13:16:03.186Z,43.29
2022-08-19T13:18:52.269Z,42.89
2022-08-19T13:21:40.253Z,42.17
2022-08-19T13:24:32.723Z,41.00
2022-08-19T13:27:22.650Z,41.49
2022-08-19T13:30:32.635Z,41.71
2022-08-19T13:33:21.268Z,41.35
2022-08-19T13:36:09.690Z,41.19
2022-08-19T13:38:59.230Z,41.27
2022-08-19T13:41:49.060Z,41.94
2022-08-19T13:44:36.931Z,41.96
2022-08-19T13:47:25.070Z,41.67
2022-08-19T13:50:16.159Z,40.67
2022-08-19T13:53:04.663Z,40.81
2022-08-19T13:55:54.029Z,40.89
2022-08-19T13:58:43.878Z,41.55
2022-08-19T14:01:33.315Z,41.20
2022-08-19T14:04:21.595Z,41.69
2022-08-19T14:07:10.089Z,41.46
2022-08-19T14:09:58.457Z,41.48
2022-08-19T14:12:47.754Z,42.14
2022-08-19T14:15:38.498Z,41.90
2022-08-19T14:18:28.611Z,41.60
2022-08-19T14:21:20.516Z,42.03
2022-08-19T14:24:09.289Z,41.90
2022-08-19T14:26:59.842Z,41.91
2022-08-19T14:29:48.089Z,42.12
2022-08-19T14:32:37.460Z,42.06
2022-08-19T14:35:27.596Z,42.32
2022-08-19T14:38:28.099Z,42.00
2022-08-19T14:41:22.183Z,40.85
2022-08-19T14:44:12.852Z,41.19
2022-08-19T14:47:01.256Z,40.52
2022-08-19T14:49:50.746Z,40.94
2022-08-19T14:52:40.837Z,41.98
2022-08-19T14:55:29.396Z,41.93
2022-08-19T14:58:28.474Z,40.81
2022-08-19T15:01:17.777Z,41.94
2022-08-19T15:04:06.445Z,42.18
2022-08-19T15:06:54.776Z,42.33
2022-08-19T15:09:42.897Z,42.46
2022-08-19T15:12:31.340Z,42.95
2022-08-19T15:15:20.326Z,42.70
2022-08-19T15:18:09.059Z,42.16
2022-08-19T15:20:57.811Z,41.95
2022-08-19T15:23:47.569Z,41.88
2022-08-19T15:26:35.795Z,41.29
2022-08-19T15:29:24.929Z,41.74
2022-08-19T15:32:13.130Z,41.33
2022-08-19T15:35:02.755Z,41.65
2022-08-19T15:37:53.385Z,41.68
2022-08-19T15:40:42.521Z,41.40
2022-08-19T15:43:30.816Z,41.50
2022-08-19T15:46:21.835Z,41.65
2022-08-19T15:49:11.640Z,41.50
2022-08-19T15:52:00.971Z,41.44
2022-08-19T15:54:49.617Z,41.45
2022-08-19T15:57:55.992Z,41.54
2022-08-19T16:01:02.550Z,41.45
2022-08-19T16:04:14.687Z,40.99
2022-08-19T16:07:04.185Z,41.44
2022-08-19T16:09:53.097Z,41.42
2022-08-19T16:12:41.514Z,40.91
2022-08-19T16:15:30.928Z,40.95
2022-08-19T16:18:19.318Z,41.07
2022-08-19T16:21:08.014Z,41.01
2022-08-19T16:23:56.681Z,41.31
2022-08-19T16:26:45.751Z,41.52
2022-08-19T16:29:39.273Z,41.44
2022-08-19T16:32:27.937Z,41.60
2022-08-19T16:35:16.216Z,42.01
2022-08-19T16:38:05.257Z,41.83
2022-08-19T16:40:54.221Z,42.08
2022-08-19T16:43:43.113Z,42.49
2022-08-19T16:46:31.659Z,43.08
2022-08-19T16:49:22.658Z,43.37
2022-08-19T16:52:29.955Z,44.22
2022-08-19T16:55:19.320Z,45.09
2022-08-19T16:58:08.411Z,45.50
2022-08-19T17:01:02.027Z,46.30
2022-08-19T17:03:52.601Z,46.82
2022-08-19T17:06:40.723Z,47.47
2022-08-19T17:09:29.523Z,48.50
2022-08-19T17:12:20.183Z,49.06
2022-08-19T17:15:10.357Z,49.98
2022-08-19T17:18:02.548Z,50.83
2022-08-19T17:20:52.249Z,52.17
2022-08-19T17:23:44.476Z,53.53
2022-08-19T17:26:33.363Z,54.04
2022-08-19T17:29:22.216Z,54.84
2022-08-19T17:32:11.004Z,55.08
2022-08-19T17:34:59.320Z,55.59
2022-08-19T17:37:47.226Z,55.92
2022-08-19T17:40:35.875Z,56.27
2022-08-19T17:43:33.374Z,57.07
2022-08-19T17:46:23.375Z,58.71
2022-08-19T17:49:11.861Z,60.15
2022-08-19T17:52:00.792Z,61.74
2022-08-19T17:54:48.964Z,61.91
2022-08-19T17:57:38.825Z,62.56
2022-08-19T18:00:27.512Z,63.54
2022-08-19T18:03:16.477Z,63.88
2022-08-19T18:06:05.577Z,64.66
2022-08-19T18:08:53.545Z,64.90
2022-08-19T18:11:44.229Z,65.81
2022-08-19T18:14:34.206Z,67.33
2022-08-19T18:17:23.857Z,67.33
2022-08-19T18:20:14.482Z,68.02
2022-08-19T18:23:44.928Z,68.98
2022-08-19T18:26:11.639Z,69.29
2022-08-19T18:29:01.358Z,70.02
2022-08-19T18:31:49.902Z,71.73
2022-08-19T18:34:38.831Z,72.37
2022-08-19T18:37:27.291Z,72.97
2022-08-19T18:40:37.465Z,73.80
2022-08-19T18:43:43.681Z,74.93
2022-08-19T18:46:49.944Z,74.91
2022-08-19T18:49:39.020Z,75.57
2022-08-19T18:52:27.650Z,76.31
2022-08-19T18:55:17.600Z,76.61
2022-08-19T18:58:05.701Z,77.06
2022-08-19T19:00:56.154Z,76.95
2022-08-19T19:03:47.464Z,77.74
2022-08-19T19:06:37.534Z,79.08
2022-08-19T19:09:26.428Z,78.50
2022-08-19T19:12:14.902Z,78.88
2022-08-19T19:15:05.376Z,79.83
2022-08-19T19:17:54.536Z,80.15
2022-08-19T19:20:43.070Z,80.44
2022-08-19T19:23:31.262Z,80.87
2022-08-19T19:26:21.103Z,81.65
2022-08-19T19:29:09.205Z,81.85
2022-08-19T19:31:57.508Z,82.09
2022-08-19T19:34:45.727Z,82.45
2022-08-19T19:37:34.484Z,82.71
2022-08-19T19:40:22.740Z,83.12
2022-08-19T19:43:10.659Z,83.52
2022-08-19T19:45:59.307Z,83.67
2022-08-19T19:52:13.937Z,85.21
2022-08-19T19:55:02.755Z,86.03
2022-08-19T19:57:52.785Z,87.34
2022-08-19T20:00:41.234Z,88.93
2022-08-19T20:03:30.050Z,90.16
2022-08-19T20:06:19.541Z,91.44
2022-08-19T20:09:09.760Z,92.49
2022-08-19T20:11:58.102Z,93.84
2022-08-19T20:14:46.918Z,94.10
2022-08-19T20:17:41.797Z,95.00
2022-08-19T20:20:31.046Z,96.14
2022-08-19T20:23:21.122Z,96.99
2022-08-19T20:26:18.031Z,97.62
2022-08-19T20:29:39.078Z,98.26
2022-08-19T20:32:27.451Z,98.66
2022-08-19T20:35:18.163Z,99.12
2022-08-19T20:38:08.168Z,99.68
2022-08-19T20:40:56.800Z,99.59
2022-08-19T20:43:45.624Z,100.00
2022-08-19T20:46:34.694Z,100.00
2022-08-19T20:49:22.814Z,100.00
2022-08-19T20:52:15.415Z,100.00
2022-08-19T20:55:03.974Z,100.00
2022-08-19T20:57:52.013Z,100.00
2022-08-19T21:00:40.601Z,100.00
2022-08-19T21:03:31.061Z,100.00
2022-08-19T21:06:19.896Z,100.00
2022-08-19T21:09:11.674Z,100.00
2022-08-19T21:12:00.192Z,100.00
2022-08-19T21:14:47.991Z,100.00
2022-08-19T21:17:37.148Z,100.00
2022-08-19T21:20:25.243Z,100.00
2022-08-19T21:23:15.224Z,100.00
2022-08-19T21:26:03.740Z,100.00
2022-08-19T21:28:51.767Z,100.00
2022-08-19T21:31:40.516Z,100.00
2022-08-19T21:34:29.127Z,100.00
2022-08-19T21:37:25.551Z,100.00
2022-08-19T21:40:14.668Z,100.00
2022-08-19T21:43:02.822Z,100.00
2022-08-19T21:45:51.581Z,100.00
2022-08-19T21:48:39.641Z,100.00
2022-08-19T21:51:28.001Z,100.00
2022-08-19T21:54:15.891Z,100.00
2022-08-19T21:57:04.500Z,100.00
2022-08-19T21:59:59.527Z,100.00
2022-08-19T22:02:47.899Z,100.00
2022-08-19T22:05:36.365Z,100.00
2022-08-19T22:08:26.775Z,100.00
2022-08-19T22:11:14.820Z,100.00
2022-08-19T22:14:04.299Z,100.00
2022-08-19T22:16:53.040Z,100.00
2022-08-19T22:19:41.114Z,100.00
2022-08-19T22:22:30.522Z,100.00
2022-08-19T22:25:31.315Z,100.00
2022-08-19T22:28:27.647Z,100.00
2022-08-19T22:31:17.818Z,100.00
2022-08-19T22:34:06.821Z,100.00
2022-08-19T22:36:55.021Z,100.00
2022-08-19T22:39:43.367Z,100.00
2022-08-19T22:42:31.890Z,100.00
2022-08-19T22:45:22.103Z,100.00
2022-08-19T22:48:12.875Z,100.00
2022-08-19T22:51:19.199Z,100.00
2022-08-19T22:54:07.591Z,100.00
2022-08-19T22:56:56.271Z,100.00
2022-08-19T22:59:44.547Z,100.00
2022-08-19T23:02:37.741Z,100.00
2022-08-19T23:05:27.839Z,100.00
2022-08-19T23:08:16.135Z,100.00
2022-08-19T23:11:05.390Z,100.00
2022-08-19T23:13:54.397Z,100.00
2022-08-19T23:16:49.108Z,100.00
2022-08-19T23:19:39.413Z,100.00
2022-08-19T23:22:28.829Z,100.00
2022-08-19T23:25:20.187Z,100.00
2022-08-19T23:28:23.073Z,100.00
2022-08-19T23:31:11.580Z,100.00
2022-08-19T23:33:59.977Z,100.00
2022-08-19T23:36:50.213Z,100.00
2022-08-19T23:39:38.885Z,100.00
2022-08-19T23:42:29.188Z,100.00
2022-08-19T23:45:23.912Z,100.00
2022-08-19T23:48:13.228Z,100.00
2022-08-19T23:51:03.297Z,100.00
2022-08-19T23:53:51.849Z,100.00
2022-08-19T23:56:40.235Z,100.00
2022-08-19T23:59:28.422Z,100.00
